Map

Track Data

SID SEASON NUMBER BASIN SUBBASIN NAME ISO_TIME NATURE LAT LON WMO_WIND WMO_PRES WMO_AGENCY TRACK_TYPE DIST2LAND LANDFALL IFLAG USA_AGENCY USA_ATCF_ID USA_LAT USA_LON USA_RECORD USA_STATUS USA_WIND USA_PRES USA_SSHS USA_R34_NE USA_R34_SE USA_R34_SW USA_R34_NW USA_R50_NE USA_R50_SE USA_R50_SW USA_R50_NW USA_R64_NE USA_R64_SE USA_R64_SW USA_R64_NW USA_POCI USA_ROCI USA_RMW USA_EYE TOKYO_LAT TOKYO_LON TOKYO_GRADE TOKYO_WIND TOKYO_PRES TOKYO_R50_DIR TOKYO_R50_LONG TOKYO_R50_SHORT TOKYO_R30_DIR TOKYO_R30_LONG TOKYO_R30_SHORT TOKYO_LAND CMA_LAT CMA_LON CMA_CAT CMA_WIND CMA_PRES HKO_LAT HKO_LON HKO_CAT HKO_WIND HKO_PRES NEWDELHI_LAT NEWDELHI_LON NEWDELHI_GRADE NEWDELHI_WIND NEWDELHI_PRES NEWDELHI_CI NEWDELHI_DP NEWDELHI_POCI REUNION_LAT REUNION_LON REUNION_TYPE REUNION_WIND REUNION_PRES REUNION_TNUM REUNION_CI REUNION_RMW REUNION_R34_NE REUNION_R34_SE REUNION_R34_SW REUNION_R34_NW REUNION_R50_NE REUNION_R50_SE REUNION_R50_SW REUNION_R50_NW REUNION_R64_NE REUNION_R64_SE REUNION_R64_SW REUNION_R64_NW BOM_LAT BOM_LON BOM_TYPE BOM_WIND BOM_PRES BOM_TNUM BOM_CI BOM_RMW BOM_R34_NE BOM_R34_SE BOM_R34_SW BOM_R34_NW BOM_R50_NE BOM_R50_SE BOM_R50_SW BOM_R50_NW BOM_R64_NE BOM_R64_SE BOM_R64_SW BOM_R64_NW BOM_ROCI BOM_POCI BOM_EYE BOM_POS_METHOD BOM_PRES_METHOD NADI_LAT NADI_LON NADI_CAT NADI_WIND NADI_PRES WELLINGTON_LAT WELLINGTON_LON WELLINGTON_WIND WELLINGTON_PRES DS824_LAT DS824_LON DS824_STAGE DS824_WIND DS824_PRES TD9636_LAT TD9636_LON TD9636_STAGE TD9636_WIND TD9636_PRES TD9635_LAT TD9635_LON TD9635_WIND TD9635_PRES TD9635_ROCI NEUMANN_LAT NEUMANN_LON NEUMANN_CLASS NEUMANN_WIND NEUMANN_PRES MLC_LAT MLC_LON MLC_CLASS MLC_WIND MLC_PRES USA_GUST BOM_GUST BOM_GUST_PER REUNION_GUST REUNION_GUST_PER USA_SEAHGT USA_SEARAD_NE USA_SEARAD_SE USA_SEARAD_SW USA_SEARAD_NW STORM_SPEED STORM_DIR
1992212N05154 1992 60 WP MM JANIS 1992-07-30 00:00:00 NR 5.00000 154.300 main 942 937 O_____________ jtwc_wp WP101992 5.00000 154.300 15 -1 2 271
1992212N05154 1992 60 WP MM JANIS 1992-07-30 03:00:00 NR 5.00250 154.200 main 937 933 P_____________ WP101992 5.00250 154.200 15 -1 2 270
1992212N05154 1992 60 WP MM JANIS 1992-07-30 06:00:00 NR 5.00000 154.100 main 933 929 O_____________ jtwc_wp WP101992 5.00000 154.100 15 -1 2 267
1992212N05154 1992 60 WP MM JANIS 1992-07-30 09:00:00 NR 4.99250 154.000 main 929 925 P_____________ WP101992 4.99250 154.000 15 -1 2 270
1992212N05154 1992 60 WP MM JANIS 1992-07-30 12:00:00 NR 5.00000 153.900 main 925 921 O_____________ jtwc_wp WP101992 5.00000 153.900 15 -1 2 282
1992212N05154 1992 60 WP MM JANIS 1992-07-30 15:00:00 NR 5.03500 153.800 main 921 921 P_____________ WP101992 5.03500 153.800 17 -1 2 297
1992212N05154 1992 60 WP MM JANIS 1992-07-30 18:00:00 NR 5.10000 153.700 main 927 924 O_____________ jtwc_wp WP101992 5.10000 153.700 20 -1 3 307
1992212N05154 1992 60 WP MM JANIS 1992-07-30 21:00:00 NR 5.18500 153.600 main 934 931 P_____________ WP101992 5.18500 153.600 20 -1 3 315
1992212N05154 1992 60 WP MM JANIS 1992-07-31 00:00:00 NR 5.30000 153.500 main 941 941 O_____________ jtwc_wp WP101992 5.30000 153.500 20 -1 3 323
1992212N05154 1992 60 WP MM JANIS 1992-07-31 03:00:00 NR 5.44250 153.400 main 949 949 P_____________ WP101992 5.44250 153.400 20 -1 4 327
1992212N05154 1992 60 WP MM JANIS 1992-07-31 06:00:00 NR 5.60000 153.300 main 967 967 O_____________ jtwc_wp WP101992 5.60000 153.300 20 -1 4 327
1992212N05154 1992 60 WP MM JANIS 1992-07-31 09:00:00 NR 5.75000 153.200 main 986 975 P_____________ WP101992 5.75000 153.200 20 -1 4 327
1992212N05154 1992 60 WP MM JANIS 1992-07-31 12:00:00 NR 5.90000 153.100 main 994 994 O_____________ jtwc_wp WP101992 5.90000 153.100 20 -1 3 327
1992212N05154 1992 60 WP MM JANIS 1992-07-31 15:00:00 NR 6.04249 153.015 main 1002 1002 P_____________ WP101992 6.04249 153.015 20 -1 4 327
1992212N05154 1992 60 WP MM JANIS 1992-07-31 18:00:00 NR 6.20000 152.900 main 1021 1021 O_____________ jtwc_wp WP101992 6.20000 152.900 20 -1 5 320
1992212N05154 1992 60 WP MM JANIS 1992-07-31 21:00:00 NR 6.38500 152.722 main 1039 1039 P_____________ WP101992 6.38500 152.722 20 -1 6 315
1992212N05154 1992 60 WP MM JANIS 1992-08-01 00:00:00 NR 6.60000 152.500 main 1057 1055 O_____________ jtwc_wp WP101992 6.60000 152.500 20 -1 6 315
1992212N05154 1992 60 WP MM JANIS 1992-08-01 03:00:00 NR 6.83499 152.265 main 1075 1075 P_____________ WP101992 6.83499 152.265 20 -1 7 315
1992212N05154 1992 60 WP MM JANIS 1992-08-01 06:00:00 NR 7.10000 152.000 main 1104 1104 O_____________ jtwc_wp WP101992 7.10000 152.000 20 -1 8 315
1992212N05154 1992 60 WP MM JANIS 1992-08-01 09:00:00 NR 7.39251 151.700 main 1135 1134 P_____________ WP101992 7.39251 151.700 20 -1 8 315
1992212N05154 1992 60 WP MM JANIS 1992-08-01 12:00:00 NR 7.70000 151.400 main 1166 1166 O_____________ jtwc_wp WP101992 7.70000 151.400 20 -1 8 319
1992212N05154 1992 60 WP MM JANIS 1992-08-01 15:00:00 NR 7.99992 151.165 main 1199 1199 P_____________ WP101992 7.99992 151.165 20 -1 8 320
1992212N05154 1992 60 WP MM JANIS 1992-08-01 18:00:00 NR 8.30000 150.900 main 1228 1228 O_____________ jtwc_wp WP101992 8.30000 150.900 20 -1 9 314
1992212N05154 1992 60 WP MM JANIS 1992-08-01 21:00:00 NR 8.59999 150.530 main 1247 1247 P_____________ WP101992 8.59999 150.530 20 -1 13 309
1992212N05154 1992 60 WP MM JANIS 1992-08-02 00:00:00 TS 9.12000 149.880 main 1285 1282 O_O___________ jtwc_wp WP101992 8.90000 150.100 20 -1 10.0000 149.000 0 17 1008 15 303
1992212N05154 1992 60 WP MM JANIS 1992-08-02 03:00:00 TS 9.40410 149.278 main 1305 1303 P_P___________ WP101992 9.20741 149.672 20 -1 9.79748 148.490 0 18 1006 13 291
1992212N05154 1992 60 WP MM JANIS 1992-08-02 06:00:00 TS 9.58571 148.643 main 1317 1315 O_O___________ jtwc_wp WP101992 9.50000 149.200 20 -1 9.70000 147.900 0 19 1005 14 285
1992212N05154 1992 60 WP MM JANIS 1992-08-02 09:00:00 TS 9.76380 147.933 main 1334 1333 P_P___________ WP101992 9.75744 148.672 20 -1 9.77015 147.193 0 21 1005 14 285
1992212N05154 1992 60 WP MM JANIS 1992-08-02 12:00:00 TS 9.95000 147.300 main 1355 1355 O_O___________ jtwc_wp WP101992 10.0000 148.100 20 -1 9.90000 146.500 1 23 1005 11 288
1992212N05154 1992 60 WP MM JANIS 1992-08-02 15:00:00 TS 10.1170 146.839 main 1367 1367 P_P___________ WP101992 10.2424 147.507 22 -1 9.94395 145.961 1 26 1004 9 295
1992212N05154 1992 60 WP MM JANIS 1992-08-02 18:00:00 TS 10.3286 146.471 main 1389 1389 O_OO__________ jtwc_wp WP101992 10.5000 146.900 25 -1 10.0000 145.500 1 29 1004 10.3000 146.700 TD 25 1000 9 308
1992212N05154 1992 60 WP MM JANIS 1992-08-02 21:00:00 TS 10.6864 146.091 main 1435 1435 P_PP__________ WP101992 10.7774 146.292 25 -1 10.1502 145.030 1 10.7977 146.140 TD 27 1000 12 314
1992212N05154 1992 60 WP MM JANIS 1992-08-03 00:00:00 TS 11.1875 145.575 1006 tokyo main 1494 1494 OOPO__________ jtwc_wp WP101992 11.1000 145.700 25 -1 11.2000 145.000 2 1006 0 0 0 10.3800 144.582 1 11.3000 145.600 TD 30 1000 14 312
1992212N05154 1992 60 WP MM JANIS 1992-08-03 03:00:00 TS 11.6174 145.046 main 1545 1545 PPPP__________ WP101992 11.4774 145.127 27 -1 11.5174 144.792 2 1005 0 0 10.6815 144.154 1 11.8074 145.092 TD 30 1000 13 311
1992212N05154 1992 60 WP MM JANIS 1992-08-03 06:00:00 TS 12.0455 144.573 1004 tokyo main 1595 1595 OOPO__________ jtwc_wp WP101992 11.9000 144.600 30 -1 11.9000 144.500 2 1004 0 0 0 11.0469 143.742 1 12.3000 144.600 TD 30 1000 13 314
1992212N05154 1992 60 WP MM JANIS 1992-08-03 09:00:00 TS 12.4924 144.105 main 1658 1658 PPPP__________ WP101992 12.3423 144.142 30 -1 12.3851 144.073 2 1004 0 0 11.4685 143.343 1 12.7499 144.100 TD 32 997 13 315
1992212N05154 1992 60 WP MM JANIS 1992-08-03 12:00:00 TS 12.9667 143.633 1004 tokyo main 1723 1723 OOPO__________ jtwc_wp WP101992 12.8000 143.700 30 -1 12.9000 143.600 2 1004 0 0 0 11.9385 142.953 1 13.2000 143.600 TS 35 995 13 316
1992212N05154 1992 60 WP MM JANIS 1992-08-03 15:00:00 TS 13.4308 143.164 main 1768 1768 PPPP__________ WP101992 13.2424 143.207 32 -1 13.3499 143.192 2 1002 0 0 12.4491 142.570 1 13.6999 143.092 TS 37 992 13 316
1992212N05154 1992 60 WP MM JANIS 1992-08-03 18:00:00 TS 13.9000 142.700 35 1000 tokyo main 1806 1806 OOPO__________ jtwc_wp WP101992 13.7000 142.700 35 0 13.8000 142.800 3 35 1000 0 9 40 40 0 12.9923 142.190 1 14.2000 142.600 TS 40 990 13 318
1992212N05154 1992 60 WP MM JANIS 1992-08-03 21:00:00 TS 14.3831 142.267 main 1830 1786 PPPP__________ WP101992 14.1849 142.207 40 0 14.3071 142.445 3 35 1000 0 9 40 40 13.5605 141.810 1 14.6573 142.150 TS 42 987 13 318
1992212N05154 1992 60 WP MM JANIS 1992-08-04 00:00:00 TS 14.8667 141.800 35 1000 tokyo main 1788 1741 OOPO__________ jtwc_wp WP101992 14.7000 141.700 45 0 14.8000 142.000 3 35 1000 0 9 40 40 0 14.1457 141.427 1 15.1000 141.700 TS 45 985 14 313
1992212N05154 1992 60 WP MM JANIS 1992-08-04 03:00:00 TS 15.3335 141.219 main 1731 1686 PPPP__________ WP101992 15.2425 141.150 47 0 15.2080 141.300 3 37 998 0 9 60 60 14.7401 141.038 1 15.5499 141.207 TS 45 985 15 310
1992212N05154 1992 60 WP MM JANIS 1992-08-04 06:00:00 TS 15.8000 140.633 40 996 tokyo main 1678 1644 OOPO__________ jtwc_wp WP101992 15.8000 140.600 50 0 15.6000 140.600 3 40 996 0 9 80 80 0 15.3359 140.639 1 16.0000 140.700 TS 45 985 14 311
1992212N05154 1992 60 WP MM JANIS 1992-08-04 09:00:00 TS 16.2397 140.149 main 1636 1609 PPPP__________ WP101992 16.3498 140.100 55 0 16.0271 140.162 3 45 993 0 9 125 125 15.9251 140.227 1 16.4574 140.200 TS 47 982 13 316
1992212N05154 1992 60 WP MM JANIS 1992-08-04 12:00:00 TS 16.7286 139.714 50 990 tokyo main 1609 1586 OOOO__________ jtwc_wp WP101992 16.9000 139.600 60 0 16.5000 139.800 4 50 990 0 9 170 170 0 16.5000 139.800 3 48 985 16.9000 139.700 STS 50 980 13 319
1992212N05154 1992 60 WP MM JANIS 1992-08-04 15:00:00 TS 17.2351 139.261 main 1586 1551 PPPP__________ WP101992 17.4724 139.057 65 1 17.0347 139.395 4 52 987 0 9 170 170 17.0465 139.396 3 53 982 17.3148 139.207 STS 52 977 14 317
1992212N05154 1992 60 WP MM JANIS 1992-08-04 18:00:00 TS 17.7250 138.750 55 985 tokyo main 1555 1514 OOOO__________ jtwc_wp WP101992 18.0000 138.500 70 1 17.6000 138.900 4 55 985 9 40 40 9 170 170 0 17.6000 138.900 3 58 980 17.7000 138.700 STS 55 975 15 313
1992212N05154 1992 60 WP MM JANIS 1992-08-04 21:00:00 TS 18.2250 138.140 main 1509 1472 PPPP__________ WP101992 18.4447 137.965 75 1 18.1952 138.223 4 60 977 9 50 50 9 175 175 18.2028 138.216 3 58 980 18.0574 138.157 STS 60 970 15 308
1992212N05154 1992 60 WP MM JANIS 1992-08-05 00:00:00 TS 18.6500 137.500 65 970 tokyo main 1477 1432 OOOO__________ jtwc_wp WP101992 18.8000 137.400 80 1 18.7000 137.500 5 65 970 9 60 60 9 180 180 0 18.7000 137.500 3 58 980 18.4000 137.600 T 65 965 14 301
1992212N05154 1992 60 WP MM JANIS 1992-08-05 03:00:00 TS 18.9273 136.906 main 1432 1399 PPPP__________ WP101992 19.0576 136.750 87 2 18.9796 136.884 5 70 965 9 65 65 9 200 200 18.9220 136.934 3 63 975 18.7498 137.057 T 70 960 12 295
1992212N05154 1992 60 WP MM JANIS 1992-08-05 06:00:00 TS 19.1750 136.325 75 960 tokyo main 1396 1361 OOOO__________ jtwc_wp WP101992 19.3000 136.100 95 2 19.2000 136.300 5 75 960 9 70 70 9 220 220 0 19.1000 136.400 4 68 970 19.1000 136.500 T 75 955 13 298
1992212N05154 1992 60 WP MM JANIS 1992-08-05 09:00:00 TS 19.5093 135.730 main 1356 1319 PPPP__________ WP101992 19.6198 135.527 100 3 19.5199 135.685 5 75 957 9 70 70 9 220 220 19.4625 135.800 4 72 967 19.4349 135.907 T 77 952 13 303
1992212N05154 1992 60 WP MM JANIS 1992-08-05 12:00:00 TS 19.9000 135.150 75 955 tokyo main 1319 1257 OOOO__________ jtwc_wp WP101992 20.0000 135.000 105 3 19.9000 135.100 5 75 955 9 70 70 9 220 220 0 19.9000 135.200 4 77 965 19.8000 135.300 T 80 950 14 308
1992212N05154 1992 60 WP MM JANIS 1992-08-05 15:00:00 TS 20.3330 134.594 main 1257 1188 PPPP__________ WP101992 20.4274 134.485 107 3 20.3348 134.577 5 75 955 9 70 70 9 220 220 20.3424 134.627 4 77 962 20.2274 134.685 T 80 950 14 312
1992212N05154 1992 60 WP MM JANIS 1992-08-05 18:00:00 TS 20.8000 134.075 75 955 tokyo main 1188 1132 OOOO__________ jtwc_wp WP101992 20.9000 134.000 110 3 20.8000 134.100 5 75 955 9 70 70 9 220 220 0 20.8000 134.100 4 77 960 20.7000 134.100 T 80 950 13 315
1992212N05154 1992 60 WP MM JANIS 1992-08-05 21:00:00 TS 21.2558 133.612 main 1121 1068 PPPP__________ WP101992 21.3923 133.550 112 3 21.2190 133.673 5 77 952 9 75 75 9 230 230 21.2347 133.642 4 82 957 21.1772 133.584 T 80 950 13 318
1992212N05154 1992 60 WP MM JANIS 1992-08-06 00:00:00 TS 21.7500 133.150 80 950 tokyo main 1057 991 OOOO__________ jtwc_wp WP101992 21.9000 133.100 115 4 21.7000 133.200 5 80 950 9 80 80 9 240 240 0 21.7000 133.200 5 87 955 21.7000 133.100 T 80 950 14 319
1992212N05154 1992 60 WP MM JANIS 1992-08-06 03:00:00 TS 22.2956 132.627 80 950 tokyo main 989 927 POPP__________ WP101992 22.3850 132.600 115 4 22.3000 132.600 5 80 950 9 80 80 9 240 240 0 22.2124 132.707 5 87 952 22.2849 132.600 T 80 950 14 320
1992212N05154 1992 60 WP MM JANIS 1992-08-06 06:00:00 TS 22.8500 132.150 80 945 tokyo main 916 843 OOOO__________ jtwc_wp WP101992 22.9000 132.100 115 4 22.8000 132.200 5 80 945 9 80 80 2 250 200 0 22.8000 132.200 5 87 950 22.9000 132.100 T 80 950 15 324
1992212N05154 1992 60 WP MM JANIS 1992-08-06 09:00:00 TS 23.4943 131.684 80 945 tokyo main 843 772 POPP__________ WP101992 23.4848 131.642 115 4 23.5000 131.800 5 80 945 9 80 80 2 250 200 0 23.4923 131.700 5 92 947 23.4999 131.592 T 85 945 16 326
1992212N05154 1992 60 WP MM JANIS 1992-08-06 12:00:00 TS 24.1250 131.200 90 940 tokyo main 772 703 OOOO__________ jtwc_wp WP101992 24.1000 131.200 115 4 24.1000 131.300 5 90 940 9 100 100 2 250 200 0 24.2000 131.200 5 97 945 24.1000 131.100 ST 90 940 16 324
1992212N05154 1992 60 WP MM JANIS 1992-08-06 15:00:00 TS 24.7500 130.681 95 935 tokyo main 692 637 POPP__________ WP101992 24.6850 130.735 115 4 24.8000 130.700 5 95 935 9 100 100 2 250 200 0 24.8226 130.670 5 97 942 24.6925 130.620 ST 87 942 15 324
1992212N05154 1992 60 WP MM JANIS 1992-08-06 18:00:00 TS 25.3250 130.225 95 935 tokyo main 638 574 OOOO__________ jtwc_wp WP101992 25.3000 130.300 115 4 25.3000 130.200 5 95 935 9 100 100 2 250 200 0 25.4000 130.200 5 97 940 25.3000 130.200 ST 85 945 14 328
1992212N05154 1992 60 WP MM JANIS 1992-08-06 21:00:00 TS 25.9330 129.877 90 940 tokyo main 574 513 POPP__________ WP101992 25.9775 129.905 115 4 25.9000 129.900 5 90 940 9 90 90 2 250 180 0 25.9198 129.847 5 92 945 25.9349 129.855 ST 80 950 14 336
1992212N05154 1992 60 WP MM JANIS 1992-08-07 00:00:00 TS 26.5750 129.600 90 940 tokyo main 502 431 OOOO__________ jtwc_wp WP101992 26.7000 129.600 115 4 26.5000 129.600 5 90 940 9 90 90 2 250 180 0 26.5000 129.600 5 87 950 26.6000 129.600 T 75 955 15 344
1992212N05154 1992 60 WP MM JANIS 1992-08-07 03:00:00 TS 27.3568 129.409 85 945 tokyo main 421 350 POPP__________ WP101992 27.4424 129.405 115 4 27.4000 129.400 5 85 945 9 90 90 2 240 160 0 27.2924 129.420 5 87 952 27.2924 129.412 T 75 955 16 350
1992212N05154 1992 60 WP MM JANIS 1992-08-07 06:00:00 TS 28.1000 129.300 85 945 tokyo main 350 284 OOOO__________ jtwc_wp WP101992 28.2000 129.300 115 4 28.1000 129.300 5 85 945 9 80 80 2 240 160 0 28.1000 129.300 5 87 955 28.0000 129.300 T 75 955 15 351
1992212N05154 1992 60 WP MM JANIS 1992-08-07 09:00:00 TS 28.7893 129.155 80 950 tokyo main 284 226 POPP__________ WP101992 28.9574 129.191 110 3 28.8000 129.100 5 80 950 9 80 80 2 240 160 0 28.7074 129.133 5 82 957 28.6924 129.198 T 72 957 14 355
1992212N05154 1992 60 WP MM JANIS 1992-08-07 12:00:00 TS 29.4500 129.150 80 950 tokyo main 212 149 OOOO__________ jtwc_wp WP101992 29.7000 129.200 105 3 29.4000 129.100 5 80 950 9 80 80 2 240 160 0 29.3000 129.100 4 77 960 29.4000 129.200 T 70 960 14 7
1992212N05154 1992 60 WP MM JANIS 1992-08-07 15:00:00 TS 30.1331 129.335 80 950 tokyo main 149 58 POPP__________ WP101992 30.3925 129.390 100 3 30.0000 129.300 5 80 950 9 80 80 2 240 160 0 30.0051 129.325 4 72 965 30.1348 129.325 T 65 962 15 17
1992212N05154 1992 60 WP MM JANIS 1992-08-07 18:00:00 TS 30.9000 129.675 75 955 tokyo main 58 21 OOOO__________ jtwc_wp WP101992 31.1000 129.700 95 2 30.8000 129.700 5 75 955 9 80 80 2 240 160 0 30.8000 129.700 4 68 970 30.9000 129.600 STS 60 965 17 19
1992212N05154 1992 60 WP MM JANIS 1992-08-07 21:00:00 TS 31.7419 129.991 75 960 tokyo main 21 9 POPP__________ WP101992 31.8995 129.991 90 2 31.7000 130.000 5 75 960 9 80 80 2 240 160 0 31.6680 129.962 4 68 970 31.7002 130.012 STS 55 967 19 22
1992212N05154 1992 60 WP MM JANIS 1992-08-08 00:00:00 TS 32.6250 130.475 70 965 tokyo main 0 0 OOOO__________ jtwc_wp WP101992 32.7000 130.400 85 2 32.7000 130.500 5 70 965 9 80 80 2 240 160 1 32.6000 130.500 4 68 970 32.5000 130.500 STS 50 970 20 29
1992212N05154 1992 60 WP MM JANIS 1992-08-08 03:00:00 TS 33.4863 131.143 60 975 tokyo main 0 0 POPP__________ WP101992 33.4149 130.983 77 1 33.7000 131.100 4 60 975 9 60 60 2 240 160 0 33.5896 131.634 4 63 975 33.2408 130.857 STS 45 975 20 34
1992212N05154 1992 60 WP MM JANIS 1992-08-08 04:00:00 TS 33.7356 131.375 60 975 tokyo main 14 0 POPP__________ WP101992 33.6440 131.211 74 1 33.9000 131.200 4 60 975 9 60 60 2 240 160 1 33.9104 132.087 4 61 976 33.4880 131.001 STS 43 976 21 42
1992212N05154 1992 60 WP MM JANIS 1992-08-08 06:00:00 TS 34.2667 131.987 55 980 tokyo main 0 0 OOOO__________ jtwc_wp WP101992 34.1000 131.700 70 1 34.4000 131.700 4 55 980 9 50 50 2 240 160 0 34.5000 133.000 3 58 980 34.0000 131.400 TS 40 980 23 49
1992212N05154 1992 60 WP MM JANIS 1992-08-08 09:00:00 TS 34.9808 133.113 55 980 tokyo main 0 0 POPP__________ WP101992 34.7991 132.442 65 1 35.0000 133.000 4 55 980 9 50 50 2 240 160 0 35.2181 134.271 3 53 982 34.8314 132.362 TS 35 982 23 51
1992212N05154 1992 60 WP MM JANIS 1992-08-08 12:00:00 TS 35.7308 134.185 50 985 tokyo main 21 21 OOOO__________ jtwc_wp WP101992 35.5000 133.300 60 0 35.9000 134.100 4 50 985 0 2 240 160 0 35.8000 135.300 3 48 985 35.7000 133.600 TD 30 985 21 49
1992212N05154 1992 60 WP MM JANIS 1992-08-08 15:00:00 TS 36.3581 135.031 50 985 tokyo main 78 61 POP___________ WP101992 36.1850 134.314 57 0 36.6000 135.000 4 50 985 0 2 240 160 0 36.2892 135.778 3 48 985 TD 18 50
1992212N05154 1992 60 WP MM JANIS 1992-08-08 18:00:00 TS 36.9000 135.900 45 990 tokyo main 69 8 OOO___________ jtwc_wp WP101992 36.9000 135.400 55 0 37.0000 136.100 3 45 990 0 2 210 150 0 36.8000 136.200 3 48 985 20 51
1992212N05154 1992 60 WP MM JANIS 1992-08-08 21:00:00 TS 37.6126 136.941 40 994 tokyo main 22 22 POP___________ WP101992 37.6760 136.430 50 0 37.8000 137.400 3 40 994 0 2 180 120 0 37.3617 136.993 3 43 987 24 46
1992212N05154 1992 60 WP MM JANIS 1992-08-09 00:00:00 TS 38.5667 138.100 40 996 tokyo main 107 56 OOO___________ jtwc_wp WP101992 38.5000 137.500 45 0 39.0000 138.600 3 40 996 0 2 150 100 0 38.2000 138.200 2 38 990 27 45
1992212N05154 1992 60 WP MM JANIS 1992-08-09 03:00:00 MX 39.5122 139.343 996 tokyo main 56 0 POP___________ WP101992 39.2734 138.648 40 0 39.7000 139.300 6 996 0 0 0 39.5632 140.082 2 33 992 33 49
1992212N05154 1992 60 WP MM JANIS 1992-08-09 06:00:00 ET 40.7333 141.300 998 tokyo main 0 0 OOO___________ jtwc_wp WP101992 40.2000 139.900 35 0 41.0000 142.000 6 998 0 0 0 41.0000 142.000 9 29 995 34 47
1992212N05154 1992 60 WP MM JANIS 1992-08-09 09:00:00 ET 41.8562 142.619 main 37 0 PPP___________ WP101992 41.4635 141.346 35 0 42.0512 143.364 6 998 0 0 42.0540 143.148 9 29 996 28 38
1992212N05154 1992 60 WP MM JANIS 1992-08-09 12:00:00 ET 42.9333 143.600 998 tokyo main 0 0 OOO___________ jtwc_wp WP101992 42.8000 142.800 35 0 43.0000 144.000 6 998 0 0 0 43.0000 144.000 9 29 998 26 36
1992212N05154 1992 60 WP MM JANIS 1992-08-09 15:00:00 ET 43.9813 144.734 main 13 11 PPP___________ WP101992 43.9425 144.052 32 -1 44.0006 145.074 6 998 0 0 44.0006 145.074 9 29 998 26 37
1992212N05154 1992 60 WP MM JANIS 1992-08-09 18:00:00 ET 45.0000 145.782 998 tokyo main 70 70 OOO___________ jtwc_wp WP101992 45.0000 145.200 30 -1 45.0000 146.000 6 998 0 0 0 45.0000 146.000 9 29 998 24 31
1992212N05154 1992 60 WP MM JANIS 1992-08-09 21:00:00 ET 46.0612 146.531 main 140 134 PPP___________ WP101992 46.0128 146.338 30 -1 46.0733 146.579 6 998 0 0 46.0733 146.579 9 29 998 22 24
1992212N05154 1992 60 WP MM JANIS 1992-08-10 00:00:00 ET 47.0000 147.056 998 tokyo main 198 198 OOO___________ jtwc_wp WP101992 47.0000 147.500 30 -1 47.0000 147.000 6 998 0 0 0 47.0000 147.000 9 29 998 17 24
1992212N05154 1992 60 WP MM JANIS 1992-08-10 03:00:00 ET 47.5747 147.503 main 234 234 _PP___________ WP101992 -1 47.5747 147.503 6 998 0 0 47.5747 147.503 9 29 998 12 32
1992212N05154 1992 60 WP MM JANIS 1992-08-10 06:00:00 ET 48.0000 148.000 998 tokyo main 251 251 _OO___________ -1 48.0000 148.000 6 998 0 0 0 48.0000 148.000 9 29 998 11 36
1992212N05154 1992 60 WP MM JANIS 1992-08-10 09:00:00 ET 48.4998 148.501 main 278 278 _PP___________ -1 48.4998 148.501 6 999 0 0 48.4998 148.501 9 29 999 12 34
1992212N05154 1992 60 WP MM JANIS 1992-08-10 12:00:00 ET 49.0000 149.000 1000 tokyo main 312 312 _OO___________ -1 49.0000 149.000 6 1000 0 0 0 49.0000 149.000 9 29 1000 12 33
1992212N05154 1992 60 WP MM JANIS 1992-08-10 15:00:00 ET 49.5000 149.500 main 353 353 _PP___________ -1 49.4998 149.501 6 1002 0 0 49.5004 149.498 9 29 1000 12 33
1992212N05154 1992 60 WP MM JANIS 1992-08-10 18:00:00 ET 50.0000 150.000 1004 tokyo main 369 332 _OO___________ -1 50.0000 150.000 6 1004 0 0 0 50.0000 150.000 9 29 1000 12 33
1992212N05154 1992 60 WP MM JANIS 1992-08-10 21:00:00 ET 50.4998 150.501 main 332 304 _P____________ -1 50.4998 150.501 6 1005 0 0 9 12 32
1992212N05154 1992 60 WP MM JANIS 1992-08-11 00:00:00 ET 51.0000 151.000 1006 tokyo main 304 292 _O____________ -1 51.0000 151.000 6 1006 0 0 0 12 30
1992212N05154 1992 60 WP MM JANIS 1992-08-11 03:00:00 ET 51.4985 151.429 main 296 288 _P____________ -1 51.4985 151.429 6 1006 0 0 12 32
1992212N05154 1992 60 WP MM JANIS 1992-08-11 06:00:00 ET 52.0000 152.000 1006 tokyo main 291 223 _O____________ -1 52.0000 152.000 6 1006 0 0 0 14 44
1992212N05154 1992 60 WP MM JANIS 1992-08-11 09:00:00 ET 52.5023 152.997 main 217 141 _P____________ -1 52.5023 152.997 6 1006 0 0 16 51
1992212N05154 1992 60 WP MM JANIS 1992-08-11 12:00:00 ET 53.0000 154.000 1006 tokyo main 141 112 _O____________ -1 53.0000 154.000 6 1006 0 0 0 13 36
1992212N05154 1992 60 WP MM JANIS 1992-08-11 15:00:00 ET 53.5646 154.280 main 111 65 _P____________ -1 53.5646 154.280 6 1007 0 0 12 31
1992212N05154 1992 60 WP MM JANIS 1992-08-11 18:00:00 ET 54.0000 155.000 1008 tokyo main 58 0 _O____________ -1 54.0000 155.000 6 1008 0 0 0 19 74
1992212N05154 1992 60 WP MM JANIS 1992-08-11 21:00:00 ET 54.0946 157.431 main 0 0 _P____________ -1 54.0946 157.431 6 1009 0 0 29 90
1992212N05154 1992 60 WP MM JANIS 1992-08-12 00:00:00 ET 54.0000 160.000 1010 tokyo main 6 6 _O____________ -1 54.0000 160.000 6 1010 0 0 0 22 95
1992212N05154 1992 60 WP MM JANIS 1992-08-12 03:00:00 ET 53.9136 161.156 main 66 55 _P____________ -1 53.9136 161.156 6 1009 0 0 12 90
1992212N05154 1992 60 WP MM JANIS 1992-08-12 06:00:00 ET 54.0000 162.000 1008 tokyo main 58 58 _O____________ -1 54.0000 162.000 6 1008 0 0 0 14 69
1992212N05154 1992 60 WP MM JANIS 1992-08-12 09:00:00 ET 54.4258 163.420 main 89 89 _P____________ -1 54.4258 163.420 6 1008 0 0 20 60
1992212N05154 1992 60 WP MM JANIS 1992-08-12 12:00:00 ET 55.0000 165.000 1008 tokyo main 165 165 _O____________ -1 55.0000 165.000 6 1008 0 0 0 21 56
1992212N05154 1992 60 WP MM JANIS 1992-08-12 15:00:00 ET 55.5700 166.421 main 197 197 _P____________ -1 55.5700 166.421 6 1008 0 0 20 59
1992212N05154 1992 60 WP MM JANIS 1992-08-12 18:00:00 ET 56.0000 168.000 1008 tokyo main 284 284 _O____________ -1 56.0000 168.000 6 1008 0 0 0 19 75
1992212N05154 1992 60 WP MM JANIS 1992-08-12 21:00:00 ET 56.0662 169.786 main 394 394 _P____________ -1 56.0662 169.786 6 1008 0 0 22 90
1992212N05154 1992 60 WP MM JANIS 1992-08-13 00:00:00 ET 56.0000 172.000 1008 tokyo main 443 443 _O____________ -1 56.0000 172.000 6 1008 0 0 0 29 91
1992212N05154 1992 60 WP MM JANIS 1992-08-13 03:00:00 ET 56.0161 175.075 main 515 515 _P____________ -1 56.0161 175.075 6 1005 0 0 33 90
1992212N05154 1992 60 WP MM JANIS 1992-08-13 06:00:00 ET 56.0000 178.000 1002 tokyo main 624 624 _O____________ -1 56.0000 178.000 6 1002 0 0 0 27 91
1992212N05154 1992 60 WP MM JANIS 1992-08-13 09:00:00 ET 55.9890 179.849 main 692 692 _P____________ -1 55.9890 179.849 6 1002 0 0 17 90
1992212N05154 1992 60 EP CP JANIS 1992-08-13 12:00:00 ET 56.0000 181.000 main 704 _O____________ -1 56.0000 181.000 6 1002 0 0 0 13 89

Digital Typhoon Data and Search

About IBTrACS Database

This database is a web-friendly format of International Best Track Archive for Climate Stewardship (IBTrACS), a global best track data archive curated by NOAA dating back to 1842.

Updated: 2021-11-26